sensor_id;sensor_type;location;lat;lon;timestamp;pressure;altitude;pressure_sealevel;temperature
12061;BMP180;6091;51.432;6.880;2023-07-29T00:00:21;100016.00;;;28.10
12061;BMP180;6091;51.432;6.880;2023-07-29T00:02:48;100014.00;;;28.10
12061;BMP180;6091;51.432;6.880;2023-07-29T00:05:15;100017.00;;;28.10
12061;BMP180;6091;51.432;6.880;2023-07-29T00:07:42;100019.00;;;28.10
12061;BMP180;6091;51.432;6.880;2023-07-29T00:10:10;100017.00;;;28.10
12061;BMP180;6091;51.432;6.880;2023-07-29T00:12:37;100007.00;;;28.10
12061;BMP180;6091;51.432;6.880;2023-07-29T00:15:04;99998.00;;;28.10
12061;BMP180;6091;51.432;6.880;2023-07-29T00:17:32;100015.00;;;28.10
12061;BMP180;6091;51.432;6.880;2023-07-29T00:19:59;100022.00;;;28.10
12061;BMP180;6091;51.432;6.880;2023-07-29T00:22:26;99984.00;;;28.10
12061;BMP180;6091;51.432;6.880;2023-07-29T00:24:54;100003.00;;;28.10
12061;BMP180;6091;51.432;6.880;2023-07-29T00:27:33;100003.00;;;28.10
12061;BMP180;6091;51.432;6.880;2023-07-29T00:30:00;99984.00;;;28.10
12061;BMP180;6091;51.432;6.880;2023-07-29T00:32:29;99989.00;;;28.00
12061;BMP180;6091;51.432;6.880;2023-07-29T00:34:57;99989.00;;;28.00
12061;BMP180;6091;51.432;6.880;2023-07-29T00:37:24;99995.00;;;28.10
12061;BMP180;6091;51.432;6.880;2023-07-29T00:39:51;99988.00;;;28.10
12061;BMP180;6091;51.432;6.880;2023-07-29T00:42:18;99986.00;;;28.00
12061;BMP180;6091;51.432;6.880;2023-07-29T00:44:45;99990.00;;;28.00
12061;BMP180;6091;51.432;6.880;2023-07-29T00:47:15;99992.00;;;28.10
12061;BMP180;6091;51.432;6.880;2023-07-29T00:49:44;99993.00;;;28.00
12061;BMP180;6091;51.432;6.880;2023-07-29T00:52:12;99979.00;;;28.00
12061;BMP180;6091;51.432;6.880;2023-07-29T00:54:40;99996.00;;;28.00
12061;BMP180;6091;51.432;6.880;2023-07-29T00:57:10;99980.00;;;28.00
12061;BMP180;6091;51.432;6.880;2023-07-29T00:59:38;99985.00;;;28.00
12061;BMP180;6091;51.432;6.880;2023-07-29T01:02:06;99983.00;;;28.00
12061;BMP180;6091;51.432;6.880;2023-07-29T01:04:33;99980.00;;;28.00
12061;BMP180;6091;51.432;6.880;2023-07-29T01:10:44;99975.00;;;28.00
12061;BMP180;6091;51.432;6.880;2023-07-29T01:13:44;99973.00;;;28.00
12061;BMP180;6091;51.432;6.880;2023-07-29T01:16:31;99982.00;;;28.00
12061;BMP180;6091;51.432;6.880;2023-07-29T01:19:05;99981.00;;;28.00
12061;BMP180;6091;51.432;6.880;2023-07-29T01:21:35;99974.00;;;28.00
12061;BMP180;6091;51.432;6.880;2023-07-29T01:24:03;99970.00;;;28.00
12061;BMP180;6091;51.432;6.880;2023-07-29T01:26:32;99965.00;;;28.00
12061;BMP180;6091;51.432;6.880;2023-07-29T01:28:59;99965.00;;;28.00
12061;BMP180;6091;51.432;6.880;2023-07-29T01:31:43;99963.00;;;28.00
12061;BMP180;6091;51.432;6.880;2023-07-29T01:34:41;99958.00;;;27.90
12061;BMP180;6091;51.432;6.880;2023-07-29T01:37:22;99958.00;;;28.00
12061;BMP180;6091;51.432;6.880;2023-07-29T01:39:55;99966.00;;;28.00
12061;BMP180;6091;51.432;6.880;2023-07-29T01:42:24;99966.00;;;28.00
12061;BMP180;6091;51.432;6.880;2023-07-29T01:44:56;99958.00;;;28.00
12061;BMP180;6091;51.432;6.880;2023-07-29T01:47:23;99957.00;;;28.00
12061;BMP180;6091;51.432;6.880;2023-07-29T01:49:50;99954.00;;;28.00
12061;BMP180;6091;51.432;6.880;2023-07-29T01:52:19;99947.00;;;28.00
12061;BMP180;6091;51.432;6.880;2023-07-29T01:54:46;99949.00;;;28.00
12061;BMP180;6091;51.432;6.880;2023-07-29T01:57:14;99953.00;;;28.00
12061;BMP180;6091;51.432;6.880;2023-07-29T01:59:41;99951.00;;;28.00
12061;BMP180;6091;51.432;6.880;2023-07-29T02:02:08;99948.00;;;28.00
12061;BMP180;6091;51.432;6.880;2023-07-29T02:04:36;99958.00;;;28.00
12061;BMP180;6091;51.432;6.880;2023-07-29T02:07:04;99936.00;;;28.00
12061;BMP180;6091;51.432;6.880;2023-07-29T02:09:31;99938.00;;;28.00
12061;BMP180;6091;51.432;6.880;2023-07-29T02:11:58;99939.00;;;28.00
12061;BMP180;6091;51.432;6.880;2023-07-29T02:14:25;99933.00;;;28.00
12061;BMP180;6091;51.432;6.880;2023-07-29T02:16:52;99937.00;;;28.00
12061;BMP180;6091;51.432;6.880;2023-07-29T02:19:20;99926.00;;;28.00
12061;BMP180;6091;51.432;6.880;2023-07-29T02:21:47;99916.00;;;28.00
12061;BMP180;6091;51.432;6.880;2023-07-29T02:24:14;99923.00;;;28.00
12061;BMP180;6091;51.432;6.880;2023-07-29T02:26:41;99917.00;;;28.00
12061;BMP180;6091;51.432;6.880;2023-07-29T02:29:08;99919.00;;;28.00
12061;BMP180;6091;51.432;6.880;2023-07-29T02:31:36;99931.00;;;28.00
12061;BMP180;6091;51.432;6.880;2023-07-29T02:34:04;99943.00;;;28.00
12061;BMP180;6091;51.432;6.880;2023-07-29T02:36:31;99950.00;;;28.00
12061;BMP180;6091;51.432;6.880;2023-07-29T02:38:58;99940.00;;;28.00
12061;BMP180;6091;51.432;6.880;2023-07-29T02:41:25;99939.00;;;28.00
12061;BMP180;6091;51.432;6.880;2023-07-29T02:43:53;99942.00;;;27.90
12061;BMP180;6091;51.432;6.880;2023-07-29T02:46:20;99933.00;;;28.00
12061;BMP180;6091;51.432;6.880;2023-07-29T02:48:47;99927.00;;;28.00
12061;BMP180;6091;51.432;6.880;2023-07-29T02:51:14;99933.00;;;28.00
12061;BMP180;6091;51.432;6.880;2023-07-29T02:53:41;99934.00;;;28.00
12061;BMP180;6091;51.432;6.880;2023-07-29T02:56:08;99938.00;;;28.00
12061;BMP180;6091;51.432;6.880;2023-07-29T02:58:37;99939.00;;;28.00
12061;BMP180;6091;51.432;6.880;2023-07-29T03:01:07;99946.00;;;28.00
12061;BMP180;6091;51.432;6.880;2023-07-29T03:03:34;99938.00;;;28.00
12061;BMP180;6091;51.432;6.880;2023-07-29T03:06:08;99940.00;;;28.00
12061;BMP180;6091;51.432;6.880;2023-07-29T03:08:36;99940.00;;;27.90
12061;BMP180;6091;51.432;6.880;2023-07-29T03:11:14;99933.00;;;28.00
12061;BMP180;6091;51.432;6.880;2023-07-29T03:13:43;99931.00;;;28.00
12061;BMP180;6091;51.432;6.880;2023-07-29T03:16:15;99942.00;;;28.00
12061;BMP180;6091;51.432;6.880;2023-07-29T03:18:44;99939.00;;;28.00
12061;BMP180;6091;51.432;6.880;2023-07-29T03:21:11;99948.00;;;28.00
12061;BMP180;6091;51.432;6.880;2023-07-29T03:23:38;99943.00;;;27.90
12061;BMP180;6091;51.432;6.880;2023-07-29T03:26:05;99935.00;;;28.00
12061;BMP180;6091;51.432;6.880;2023-07-29T03:28:41;99943.00;;;28.00
12061;BMP180;6091;51.432;6.880;2023-07-29T03:31:08;99946.00;;;27.90
12061;BMP180;6091;51.432;6.880;2023-07-29T03:33:36;99936.00;;;28.00
12061;BMP180;6091;51.432;6.880;2023-07-29T03:36:03;99941.00;;;28.00
12061;BMP180;6091;51.432;6.880;2023-07-29T03:38:30;99936.00;;;27.90
12061;BMP180;6091;51.432;6.880;2023-07-29T03:40:59;99924.00;;;27.90
12061;BMP180;6091;51.432;6.880;2023-07-29T03:43:29;99913.00;;;27.90
12061;BMP180;6091;51.432;6.880;2023-07-29T03:45:56;99913.00;;;27.90
12061;BMP180;6091;51.432;6.880;2023-07-29T03:48:23;99918.00;;;27.90
12061;BMP180;6091;51.432;6.880;2023-07-29T03:50:50;99938.00;;;27.90
12061;BMP180;6091;51.432;6.880;2023-07-29T03:53:17;99927.00;;;27.90
12061;BMP180;6091;51.432;6.880;2023-07-29T03:55:44;99927.00;;;27.90
12061;BMP180;6091;51.432;6.880;2023-07-29T03:58:12;99920.00;;;27.90
12061;BMP180;6091;51.432;6.880;2023-07-29T04:00:39;99929.00;;;27.90
12061;BMP180;6091;51.432;6.880;2023-07-29T04:03:06;99925.00;;;27.90
12061;BMP180;6091;51.432;6.880;2023-07-29T04:05:34;99930.00;;;27.90
12061;BMP180;6091;51.432;6.880;2023-07-29T04:08:02;99937.00;;;27.90
12061;BMP180;6091;51.432;6.880;2023-07-29T04:10:29;99944.00;;;27.90
12061;BMP180;6091;51.432;6.880;2023-07-29T04:12:58;99936.00;;;27.90
12061;BMP180;6091;51.432;6.880;2023-07-29T04:15:25;99926.00;;;27.90
12061;BMP180;6091;51.432;6.880;2023-07-29T04:17:52;99910.00;;;27.90
12061;BMP180;6091;51.432;6.880;2023-07-29T04:20:19;99912.00;;;27.90
12061;BMP180;6091;51.432;6.880;2023-07-29T04:22:46;99911.00;;;27.90
12061;BMP180;6091;51.432;6.880;2023-07-29T04:25:14;99917.00;;;27.90
12061;BMP180;6091;51.432;6.880;2023-07-29T04:27:41;99937.00;;;27.90
12061;BMP180;6091;51.432;6.880;2023-07-29T04:30:08;99945.00;;;27.90
12061;BMP180;6091;51.432;6.880;2023-07-29T04:32:35;99958.00;;;27.90
12061;BMP180;6091;51.432;6.880;2023-07-29T04:35:02;99949.00;;;27.90
12061;BMP180;6091;51.432;6.880;2023-07-29T04:37:30;99956.00;;;27.90
12061;BMP180;6091;51.432;6.880;2023-07-29T04:39:59;99960.00;;;27.90
12061;BMP180;6091;51.432;6.880;2023-07-29T04:42:26;99955.00;;;27.90
12061;BMP180;6091;51.432;6.880;2023-07-29T04:44:53;99970.00;;;27.90
12061;BMP180;6091;51.432;6.880;2023-07-29T04:47:23;99973.00;;;27.90
12061;BMP180;6091;51.432;6.880;2023-07-29T04:49:53;99973.00;;;27.90
12061;BMP180;6091;51.432;6.880;2023-07-29T04:52:20;99984.00;;;27.90
12061;BMP180;6091;51.432;6.880;2023-07-29T04:54:48;99984.00;;;27.90
12061;BMP180;6091;51.432;6.880;2023-07-29T04:57:15;99978.00;;;27.90
12061;BMP180;6091;51.432;6.880;2023-07-29T04:59:42;99977.00;;;27.90
12061;BMP180;6091;51.432;6.880;2023-07-29T05:02:09;99958.00;;;27.90
12061;BMP180;6091;51.432;6.880;2023-07-29T05:04:36;99952.00;;;27.90
12061;BMP180;6091;51.432;6.880;2023-07-29T05:07:04;99943.00;;;27.90
12061;BMP180;6091;51.432;6.880;2023-07-29T05:09:31;99935.00;;;27.90
12061;BMP180;6091;51.432;6.880;2023-07-29T05:11:58;99928.00;;;27.90
12061;BMP180;6091;51.432;6.880;2023-07-29T05:14:25;99936.00;;;27.90
12061;BMP180;6091;51.432;6.880;2023-07-29T05:16:52;99938.00;;;27.90
12061;BMP180;6091;51.432;6.880;2023-07-29T05:19:19;99941.00;;;27.90
12061;BMP180;6091;51.432;6.880;2023-07-29T05:21:46;99939.00;;;27.90
12061;BMP180;6091;51.432;6.880;2023-07-29T05:24:13;99941.00;;;28.00
12061;BMP180;6091;51.432;6.880;2023-07-29T05:26:40;99946.00;;;28.00
12061;BMP180;6091;51.432;6.880;2023-07-29T05:29:07;99953.00;;;27.90
12061;BMP180;6091;51.432;6.880;2023-07-29T05:31:34;99966.00;;;27.90
12061;BMP180;6091;51.432;6.880;2023-07-29T05:34:01;99971.00;;;28.00
12061;BMP180;6091;51.432;6.880;2023-07-29T05:36:28;99971.00;;;28.00
12061;BMP180;6091;51.432;6.880;2023-07-29T05:38:56;99982.00;;;28.00
12061;BMP180;6091;51.432;6.880;2023-07-29T05:41:23;99992.00;;;28.00
12061;BMP180;6091;51.432;6.880;2023-07-29T05:43:50;99999.00;;;28.00
12061;BMP180;6091;51.432;6.880;2023-07-29T05:46:17;100003.00;;;28.00
12061;BMP180;6091;51.432;6.880;2023-07-29T05:48:44;100010.00;;;28.00
12061;BMP180;6091;51.432;6.880;2023-07-29T05:51:11;99995.00;;;28.00
12061;BMP180;6091;51.432;6.880;2023-07-29T05:53:38;99998.00;;;28.00
12061;BMP180;6091;51.432;6.880;2023-07-29T05:56:06;100007.00;;;28.00
12061;BMP180;6091;51.432;6.880;2023-07-29T05:58:33;100001.00;;;28.00
12061;BMP180;6091;51.432;6.880;2023-07-29T06:01:00;100003.00;;;28.00
12061;BMP180;6091;51.432;6.880;2023-07-29T06:03:28;100015.00;;;28.00
12061;BMP180;6091;51.432;6.880;2023-07-29T06:05:55;100024.00;;;28.00
12061;BMP180;6091;51.432;6.880;2023-07-29T06:08:22;100018.00;;;28.00
12061;BMP180;6091;51.432;6.880;2023-07-29T06:10:49;100016.00;;;28.00
12061;BMP180;6091;51.432;6.880;2023-07-29T06:13:16;100026.00;;;28.00
12061;BMP180;6091;51.432;6.880;2023-07-29T06:15:43;100030.00;;;28.00
12061;BMP180;6091;51.432;6.880;2023-07-29T06:18:10;100041.00;;;28.00
12061;BMP180;6091;51.432;6.880;2023-07-29T06:20:37;100037.00;;;28.00
12061;BMP180;6091;51.432;6.880;2023-07-29T06:23:04;100047.00;;;28.00
12061;BMP180;6091;51.432;6.880;2023-07-29T06:25:32;100046.00;;;28.00
12061;BMP180;6091;51.432;6.880;2023-07-29T06:27:59;100046.00;;;28.00
12061;BMP180;6091;51.432;6.880;2023-07-29T06:30:26;100049.00;;;28.00
12061;BMP180;6091;51.432;6.880;2023-07-29T06:32:53;100050.00;;;28.00
12061;BMP180;6091;51.432;6.880;2023-07-29T06:35:21;100049.00;;;28.00
12061;BMP180;6091;51.432;6.880;2023-07-29T06:37:49;100049.00;;;28.00
12061;BMP180;6091;51.432;6.880;2023-07-29T06:40:16;100057.00;;;28.10
12061;BMP180;6091;51.432;6.880;2023-07-29T06:42:43;100053.00;;;28.10
12061;BMP180;6091;51.432;6.880;2023-07-29T06:45:13;100053.00;;;28.10
12061;BMP180;6091;51.432;6.880;2023-07-29T06:47:42;100061.00;;;28.10
12061;BMP180;6091;51.432;6.880;2023-07-29T06:50:09;100053.00;;;28.10
12061;BMP180;6091;51.432;6.880;2023-07-29T06:52:37;100053.00;;;28.10
12061;BMP180;6091;51.432;6.880;2023-07-29T06:55:05;100044.00;;;28.10
12061;BMP180;6091;51.432;6.880;2023-07-29T06:57:32;100046.00;;;28.20
12061;BMP180;6091;51.432;6.880;2023-07-29T07:00:01;100040.00;;;28.20
12061;BMP180;6091;51.432;6.880;2023-07-29T07:02:30;100041.00;;;28.20
12061;BMP180;6091;51.432;6.880;2023-07-29T07:04:57;100045.00;;;28.20
12061;BMP180;6091;51.432;6.880;2023-07-29T07:07:24;100050.00;;;28.20
12061;BMP180;6091;51.432;6.880;2023-07-29T07:09:51;100047.00;;;28.20
12061;BMP180;6091;51.432;6.880;2023-07-29T07:12:18;100037.00;;;28.30
12061;BMP180;6091;51.432;6.880;2023-07-29T07:14:45;100038.00;;;28.30
12061;BMP180;6091;51.432;6.880;2023-07-29T07:17:12;100041.00;;;28.30
12061;BMP180;6091;51.432;6.880;2023-07-29T07:19:40;100054.00;;;28.30
12061;BMP180;6091;51.432;6.880;2023-07-29T07:22:07;100045.00;;;28.30
12061;BMP180;6091;51.432;6.880;2023-07-29T07:24:37;100057.00;;;28.30
12061;BMP180;6091;51.432;6.880;2023-07-29T07:27:04;100053.00;;;28.30
12061;BMP180;6091;51.432;6.880;2023-07-29T07:29:31;100048.00;;;28.40
12061;BMP180;6091;51.432;6.880;2023-07-29T07:31:59;100050.00;;;28.40
12061;BMP180;6091;51.432;6.880;2023-07-29T07:34:26;100052.00;;;28.40
12061;BMP180;6091;51.432;6.880;2023-07-29T07:36:53;100055.00;;;28.40
12061;BMP180;6091;51.432;6.880;2023-07-29T07:39:20;100048.00;;;28.40
12061;BMP180;6091;51.432;6.880;2023-07-29T07:41:47;100054.00;;;28.40
12061;BMP180;6091;51.432;6.880;2023-07-29T07:44:15;100048.00;;;28.40
12061;BMP180;6091;51.432;6.880;2023-07-29T07:46:42;100053.00;;;28.40
12061;BMP180;6091;51.432;6.880;2023-07-29T07:49:09;100051.00;;;28.50
12061;BMP180;6091;51.432;6.880;2023-07-29T07:51:36;100045.00;;;28.50
12061;BMP180;6091;51.432;6.880;2023-07-29T07:54:03;100055.00;;;28.50
12061;BMP180;6091;51.432;6.880;2023-07-29T07:56:30;100058.00;;;28.50
12061;BMP180;6091;51.432;6.880;2023-07-29T07:58:57;100065.00;;;28.50
12061;BMP180;6091;51.432;6.880;2023-07-29T08:01:24;100052.00;;;28.50
12061;BMP180;6091;51.432;6.880;2023-07-29T08:03:52;100073.00;;;28.50
12061;BMP180;6091;51.432;6.880;2023-07-29T08:06:19;100061.00;;;28.50
12061;BMP180;6091;51.432;6.880;2023-07-29T08:08:46;100060.00;;;28.50
12061;BMP180;6091;51.432;6.880;2023-07-29T08:11:13;100059.00;;;28.50
12061;BMP180;6091;51.432;6.880;2023-07-29T08:13:40;100056.00;;;28.50
12061;BMP180;6091;51.432;6.880;2023-07-29T08:16:07;100061.00;;;28.50
12061;BMP180;6091;51.432;6.880;2023-07-29T08:18:34;100063.00;;;28.50
12061;BMP180;6091;51.432;6.880;2023-07-29T08:21:04;100053.00;;;28.60
12061;BMP180;6091;51.432;6.880;2023-07-29T08:23:33;100067.00;;;28.60
12061;BMP180;6091;51.432;6.880;2023-07-29T08:26:03;100062.00;;;28.60
12061;BMP180;6091;51.432;6.880;2023-07-29T08:28:38;100059.00;;;28.60
12061;BMP180;6091;51.432;6.880;2023-07-29T08:31:06;100067.00;;;28.60
12061;BMP180;6091;51.432;6.880;2023-07-29T08:33:34;100065.00;;;28.60
12061;BMP180;6091;51.432;6.880;2023-07-29T08:36:03;100063.00;;;28.60
12061;BMP180;6091;51.432;6.880;2023-07-29T08:38:30;100061.00;;;28.60
12061;BMP180;6091;51.432;6.880;2023-07-29T08:41:10;100053.00;;;28.60
12061;BMP180;6091;51.432;6.880;2023-07-29T08:43:56;100048.00;;;28.60
12061;BMP180;6091;51.432;6.880;2023-07-29T08:46:26;100048.00;;;28.60
12061;BMP180;6091;51.432;6.880;2023-07-29T08:48:55;100044.00;;;28.60
12061;BMP180;6091;51.432;6.880;2023-07-29T08:51:24;100043.00;;;28.60
12061;BMP180;6091;51.432;6.880;2023-07-29T08:53:52;100047.00;;;28.70
12061;BMP180;6091;51.432;6.880;2023-07-29T08:56:19;100043.00;;;28.70
12061;BMP180;6091;51.432;6.880;2023-07-29T08:58:47;100049.00;;;28.70
12061;BMP180;6091;51.432;6.880;2023-07-29T09:01:15;100048.00;;;28.70
12061;BMP180;6091;51.432;6.880;2023-07-29T09:03:43;100054.00;;;28.70
12061;BMP180;6091;51.432;6.880;2023-07-29T09:06:10;100064.00;;;28.70
12061;BMP180;6091;51.432;6.880;2023-07-29T09:08:38;100066.00;;;28.80
12061;BMP180;6091;51.432;6.880;2023-07-29T09:11:07;100059.00;;;28.80
12061;BMP180;6091;51.432;6.880;2023-07-29T09:13:35;100069.00;;;28.80
12061;BMP180;6091;51.432;6.880;2023-07-29T09:16:03;100065.00;;;28.80
12061;BMP180;6091;51.432;6.880;2023-07-29T09:18:31;100061.00;;;28.80
12061;BMP180;6091;51.432;6.880;2023-07-29T09:20:59;100070.00;;;28.90
12061;BMP180;6091;51.432;6.880;2023-07-29T09:23:40;100074.00;;;28.90
12061;BMP180;6091;51.432;6.880;2023-07-29T09:26:08;100067.00;;;28.90
12061;BMP180;6091;51.432;6.880;2023-07-29T09:28:39;100073.00;;;28.90
12061;BMP180;6091;51.432;6.880;2023-07-29T09:31:07;100073.00;;;28.90
12061;BMP180;6091;51.432;6.880;2023-07-29T09:33:48;100081.00;;;29.00
12061;BMP180;6091;51.432;6.880;2023-07-29T09:36:15;100075.00;;;29.00
12061;BMP180;6091;51.432;6.880;2023-07-29T09:38:44;100085.00;;;29.00
12061;BMP180;6091;51.432;6.880;2023-07-29T09:41:15;100081.00;;;29.00
12061;BMP180;6091;51.432;6.880;2023-07-29T09:43:45;100081.00;;;29.00
12061;BMP180;6091;51.432;6.880;2023-07-29T09:46:12;100083.00;;;29.00
12061;BMP180;6091;51.432;6.880;2023-07-29T09:48:39;100079.00;;;29.00
12061;BMP180;6091;51.432;6.880;2023-07-29T09:51:15;100084.00;;;29.10
12061;BMP180;6091;51.432;6.880;2023-07-29T09:53:45;100087.00;;;29.00
12061;BMP180;6091;51.432;6.880;2023-07-29T09:56:15;100080.00;;;29.00
12061;BMP180;6091;51.432;6.880;2023-07-29T09:58:44;100079.00;;;29.10
12061;BMP180;6091;51.432;6.880;2023-07-29T10:01:13;100067.00;;;29.10
12061;BMP180;6091;51.432;6.880;2023-07-29T10:03:45;100059.00;;;29.10
12061;BMP180;6091;51.432;6.880;2023-07-29T10:06:14;100056.00;;;29.10
12061;BMP180;6091;51.432;6.880;2023-07-29T10:08:43;100063.00;;;29.10
12061;BMP180;6091;51.432;6.880;2023-07-29T10:11:11;100063.00;;;29.10
12061;BMP180;6091;51.432;6.880;2023-07-29T10:13:39;100063.00;;;29.20
12061;BMP180;6091;51.432;6.880;2023-07-29T10:16:06;100063.00;;;29.20
12061;BMP180;6091;51.432;6.880;2023-07-29T10:18:34;100057.00;;;29.20
12061;BMP180;6091;51.432;6.880;2023-07-29T10:21:02;100059.00;;;29.20
12061;BMP180;6091;51.432;6.880;2023-07-29T10:23:37;100058.00;;;29.20
12061;BMP180;6091;51.432;6.880;2023-07-29T10:26:09;100067.00;;;29.30
12061;BMP180;6091;51.432;6.880;2023-07-29T10:28:41;100069.00;;;29.30
12061;BMP180;6091;51.432;6.880;2023-07-29T10:31:16;100069.00;;;29.30
12061;BMP180;6091;51.432;6.880;2023-07-29T10:33:44;100066.00;;;29.30
12061;BMP180;6091;51.432;6.880;2023-07-29T10:36:13;100077.00;;;29.30
12061;BMP180;6091;51.432;6.880;2023-07-29T10:38:41;100069.00;;;29.30
12061;BMP180;6091;51.432;6.880;2023-07-29T10:41:08;100070.00;;;29.30
12061;BMP180;6091;51.432;6.880;2023-07-29T10:43:37;100073.00;;;29.40
12061;BMP180;6091;51.432;6.880;2023-07-29T10:46:21;100070.00;;;29.50
12061;BMP180;6091;51.432;6.880;2023-07-29T10:48:56;100073.00;;;29.70
12061;BMP180;6091;51.432;6.880;2023-07-29T10:51:30;100075.00;;;29.90
12061;BMP180;6091;51.432;6.880;2023-07-29T10:54:10;100061.00;;;30.00
12061;BMP180;6091;51.432;6.880;2023-07-29T10:56:43;100059.00;;;30.30
12061;BMP180;6091;51.432;6.880;2023-07-29T11:01:56;100059.00;;;30.70
12061;BMP180;6091;51.432;6.880;2023-07-29T11:04:30;100055.00;;;30.80
12061;BMP180;6091;51.432;6.880;2023-07-29T11:12:46;100057.00;;;30.80
12061;BMP180;6091;51.432;6.880;2023-07-29T11:15:32;100057.00;;;30.70
12061;BMP180;6091;51.432;6.880;2023-07-29T11:18:01;100053.00;;;30.70
12061;BMP180;6091;51.432;6.880;2023-07-29T11:20:33;100057.00;;;30.70
12061;BMP180;6091;51.432;6.880;2023-07-29T11:23:02;100053.00;;;30.60
12061;BMP180;6091;51.432;6.880;2023-07-29T11:25:31;100064.00;;;30.60
12061;BMP180;6091;51.432;6.880;2023-07-29T11:28:00;100061.00;;;30.50
12061;BMP180;6091;51.432;6.880;2023-07-29T11:30:32;100051.00;;;30.40
12061;BMP180;6091;51.432;6.880;2023-07-29T11:33:00;100062.00;;;30.40
12061;BMP180;6091;51.432;6.880;2023-07-29T11:35:28;100063.00;;;30.30
12061;BMP180;6091;51.432;6.880;2023-07-29T11:37:55;100061.00;;;30.30
12061;BMP180;6091;51.432;6.880;2023-07-29T11:40:25;100061.00;;;30.20
12061;BMP180;6091;51.432;6.880;2023-07-29T11:42:53;100064.00;;;30.20
12061;BMP180;6091;51.432;6.880;2023-07-29T11:45:22;100051.00;;;30.20
12061;BMP180;6091;51.432;6.880;2023-07-29T11:47:58;100043.00;;;30.30
12061;BMP180;6091;51.432;6.880;2023-07-29T11:50:26;100045.00;;;30.30
12061;BMP180;6091;51.432;6.880;2023-07-29T11:52:53;100048.00;;;30.40
12061;BMP180;6091;51.432;6.880;2023-07-29T11:55:21;100044.00;;;30.40
12061;BMP180;6091;51.432;6.880;2023-07-29T11:57:51;100028.00;;;30.50
12061;BMP180;6091;51.432;6.880;2023-07-29T12:00:21;100020.00;;;30.60
12061;BMP180;6091;51.432;6.880;2023-07-29T12:02:49;100026.00;;;30.60
12061;BMP180;6091;51.432;6.880;2023-07-29T12:05:18;100034.00;;;30.70
12061;BMP180;6091;51.432;6.880;2023-07-29T12:07:46;100043.00;;;30.70
12061;BMP180;6091;51.432;6.880;2023-07-29T12:10:13;100044.00;;;30.80
12061;BMP180;6091;51.432;6.880;2023-07-29T12:12:46;100047.00;;;30.80
12061;BMP180;6091;51.432;6.880;2023-07-29T12:15:14;100046.00;;;30.80
12061;BMP180;6091;51.432;6.880;2023-07-29T12:17:49;100031.00;;;30.80
12061;BMP180;6091;51.432;6.880;2023-07-29T12:20:20;100038.00;;;30.80
12061;BMP180;6091;51.432;6.880;2023-07-29T12:22:59;100042.00;;;30.80
12061;BMP180;6091;51.432;6.880;2023-07-29T12:25:29;100039.00;;;30.80
12061;BMP180;6091;51.432;6.880;2023-07-29T12:28:03;100037.00;;;30.80
12061;BMP180;6091;51.432;6.880;2023-07-29T12:30:30;100044.00;;;30.90
12061;BMP180;6091;51.432;6.880;2023-07-29T12:33:00;100037.00;;;31.00
12061;BMP180;6091;51.432;6.880;2023-07-29T12:35:37;100045.00;;;31.00
12061;BMP180;6091;51.432;6.880;2023-07-29T12:38:05;100054.00;;;31.00
12061;BMP180;6091;51.432;6.880;2023-07-29T12:40:32;100051.00;;;31.00
12061;BMP180;6091;51.432;6.880;2023-07-29T12:42:59;100042.00;;;31.00
12061;BMP180;6091;51.432;6.880;2023-07-29T12:45:27;100045.00;;;31.00
12061;BMP180;6091;51.432;6.880;2023-07-29T12:47:56;100044.00;;;31.00
12061;BMP180;6091;51.432;6.880;2023-07-29T12:50:23;100040.00;;;31.10
12061;BMP180;6091;51.432;6.880;2023-07-29T12:52:50;100037.00;;;31.10
12061;BMP180;6091;51.432;6.880;2023-07-29T12:55:17;100035.00;;;31.10
12061;BMP180;6091;51.432;6.880;2023-07-29T12:57:50;100037.00;;;31.10
12061;BMP180;6091;51.432;6.880;2023-07-29T13:00:19;100045.00;;;31.10
12061;BMP180;6091;51.432;6.880;2023-07-29T13:02:46;100024.00;;;31.00
12061;BMP180;6091;51.432;6.880;2023-07-29T13:05:14;100030.00;;;31.10
12061;BMP180;6091;51.432;6.880;2023-07-29T13:07:42;100034.00;;;31.10
12061;BMP180;6091;51.432;6.880;2023-07-29T13:10:10;100022.00;;;31.10
12061;BMP180;6091;51.432;6.880;2023-07-29T13:12:38;100033.00;;;31.10
12061;BMP180;6091;51.432;6.880;2023-07-29T13:15:06;100033.00;;;31.00
12061;BMP180;6091;51.432;6.880;2023-07-29T13:17:34;100028.00;;;31.00
12061;BMP180;6091;51.432;6.880;2023-07-29T13:20:02;100032.00;;;30.90
12061;BMP180;6091;51.432;6.880;2023-07-29T13:22:30;100030.00;;;30.90
12061;BMP180;6091;51.432;6.880;2023-07-29T13:24:57;100043.00;;;30.80
12061;BMP180;6091;51.432;6.880;2023-07-29T13:27:24;100043.00;;;30.70
12061;BMP180;6091;51.432;6.880;2023-07-29T13:29:52;100036.00;;;30.70
12061;BMP180;6091;51.432;6.880;2023-07-29T13:32:19;100033.00;;;30.60
12061;BMP180;6091;51.432;6.880;2023-07-29T13:34:46;100034.00;;;30.50
12061;BMP180;6091;51.432;6.880;2023-07-29T13:37:13;100029.00;;;30.50
12061;BMP180;6091;51.432;6.880;2023-07-29T13:39:40;100030.00;;;30.40
12061;BMP180;6091;51.432;6.880;2023-07-29T13:42:07;100038.00;;;30.30
12061;BMP180;6091;51.432;6.880;2023-07-29T13:44:34;100049.00;;;30.30
12061;BMP180;6091;51.432;6.880;2023-07-29T13:47:01;100047.00;;;30.20
12061;BMP180;6091;51.432;6.880;2023-07-29T13:49:28;100049.00;;;30.20
12061;BMP180;6091;51.432;6.880;2023-07-29T13:51:56;100050.00;;;30.10
12061;BMP180;6091;51.432;6.880;2023-07-29T13:54:23;100055.00;;;30.00
12061;BMP180;6091;51.432;6.880;2023-07-29T13:56:50;100073.00;;;30.00
12061;BMP180;6091;51.432;6.880;2023-07-29T13:59:17;100091.00;;;29.90
12061;BMP180;6091;51.432;6.880;2023-07-29T14:01:44;100083.00;;;29.90
12061;BMP180;6091;51.432;6.880;2023-07-29T14:04:12;100081.00;;;29.80
12061;BMP180;6091;51.432;6.880;2023-07-29T14:06:39;100085.00;;;29.80
12061;BMP180;6091;51.432;6.880;2023-07-29T14:09:09;100093.00;;;29.80
12061;BMP180;6091;51.432;6.880;2023-07-29T14:11:36;100094.00;;;29.70
12061;BMP180;6091;51.432;6.880;2023-07-29T14:14:03;100107.00;;;29.70
12061;BMP180;6091;51.432;6.880;2023-07-29T14:16:30;100103.00;;;29.70
12061;BMP180;6091;51.432;6.880;2023-07-29T14:18:58;100112.00;;;29.70
12061;BMP180;6091;51.432;6.880;2023-07-29T14:21:25;100123.00;;;29.70
12061;BMP180;6091;51.432;6.880;2023-07-29T14:23:52;100131.00;;;29.70
12061;BMP180;6091;51.432;6.880;2023-07-29T14:26:19;100125.00;;;29.70
12061;BMP180;6091;51.432;6.880;2023-07-29T14:28:46;100119.00;;;29.70
12061;BMP180;6091;51.432;6.880;2023-07-29T14:31:13;100108.00;;;29.70
12061;BMP180;6091;51.432;6.880;2023-07-29T14:33:40;100118.00;;;29.80